sensor_id;sensor_type;location;lat;lon;timestamp;P1;durP1;ratioP1;P2;durP2;ratioP2
14272;SDS011;7220;49.450;11.052;2023-12-20T00:02:32;2.90;;;1.92;;
14272;SDS011;7220;49.450;11.052;2023-12-20T00:06:32;2.22;;;2.03;;
14272;SDS011;7220;49.450;11.052;2023-12-20T00:10:33;3.60;;;2.35;;
14272;SDS011;7220;49.450;11.052;2023-12-20T00:14:33;1.77;;;1.55;;
14272;SDS011;7220;49.450;11.052;2023-12-20T00:18:34;2.90;;;1.92;;
14272;SDS011;7220;49.450;11.052;2023-12-20T00:22:34;2.35;;;2.05;;
14272;SDS011;7220;49.450;11.052;2023-12-20T00:26:34;1.70;;;1.60;;
14272;SDS011;7220;49.450;11.052;2023-12-20T00:30:35;1.77;;;1.50;;
14272;SDS011;7220;49.450;11.052;2023-12-20T00:34:36;1.60;;;1.50;;
14272;SDS011;7220;49.450;11.052;2023-12-20T00:38:36;2.58;;;1.23;;
14272;SDS011;7220;49.450;11.052;2023-12-20T00:42:36;2.22;;;1.52;;
14272;SDS011;7220;49.450;11.052;2023-12-20T00:46:37;1.88;;;1.65;;
14272;SDS011;7220;49.450;11.052;2023-12-20T00:50:37;2.13;;;1.58;;
14272;SDS011;7220;49.450;11.052;2023-12-20T00:54:38;1.98;;;1.35;;
14272;SDS011;7220;49.450;11.052;2023-12-20T00:58:38;1.73;;;1.63;;
14272;SDS011;7220;49.450;11.052;2023-12-20T01:02:38;2.03;;;1.83;;
14272;SDS011;7220;49.450;11.052;2023-12-20T01:06:39;1.75;;;1.60;;
14272;SDS011;7220;49.450;11.052;2023-12-20T01:10:39;2.08;;;1.48;;
14272;SDS011;7220;49.450;11.052;2023-12-20T01:14:40;1.38;;;1.27;;
14272;SDS011;7220;49.450;11.052;2023-12-20T01:18:40;1.20;;;1.15;;
14272;SDS011;7220;49.450;11.052;2023-12-20T01:22:41;1.52;;;1.42;;
14272;SDS011;7220;49.450;11.052;2023-12-20T01:26:42;1.30;;;1.20;;
14272;SDS011;7220;49.450;11.052;2023-12-20T01:30:43;0.80;;;0.80;;
14272;SDS011;7220;49.450;11.052;2023-12-20T01:34:44;0.90;;;0.82;;
14272;SDS011;7220;49.450;11.052;2023-12-20T01:38:44;0.95;;;0.95;;
14272;SDS011;7220;49.450;11.052;2023-12-20T01:42:44;2.20;;;0.90;;
14272;SDS011;7220;49.450;11.052;2023-12-20T01:46:45;1.05;;;0.98;;
14272;SDS011;7220;49.450;11.052;2023-12-20T01:50:46;0.60;;;0.60;;
14272;SDS011;7220;49.450;11.052;2023-12-20T01:54:46;0.70;;;0.70;;
14272;SDS011;7220;49.450;11.052;2023-12-20T01:58:47;0.85;;;0.65;;
14272;SDS011;7220;49.450;11.052;2023-12-20T02:02:48;0.65;;;0.65;;
14272;SDS011;7220;49.450;11.052;2023-12-20T02:06:52;0.73;;;0.73;;
14272;SDS011;7220;49.450;11.052;2023-12-20T02:10:52;0.73;;;0.73;;
14272;SDS011;7220;49.450;11.052;2023-12-20T02:14:54;0.60;;;0.60;;
14272;SDS011;7220;49.450;11.052;2023-12-20T02:18:54;0.50;;;0.50;;
14272;SDS011;7220;49.450;11.052;2023-12-20T02:22:54;0.43;;;0.43;;
14272;SDS011;7220;49.450;11.052;2023-12-20T02:26:55;0.70;;;0.70;;
14272;SDS011;7220;49.450;11.052;2023-12-20T02:30:55;0.50;;;0.50;;
14272;SDS011;7220;49.450;11.052;2023-12-20T02:34:56;1.50;;;0.47;;
14272;SDS011;7220;49.450;11.052;2023-12-20T02:38:56;0.43;;;0.43;;
14272;SDS011;7220;49.450;11.052;2023-12-20T02:42:57;0.82;;;0.55;;
14272;SDS011;7220;49.450;11.052;2023-12-20T02:46:57;0.88;;;0.88;;
14272;SDS011;7220;49.450;11.052;2023-12-20T02:50:57;0.55;;;0.55;;
14272;SDS011;7220;49.450;11.052;2023-12-20T02:54:58;0.43;;;0.43;;
14272;SDS011;7220;49.450;11.052;2023-12-20T02:58:58;0.65;;;0.65;;
14272;SDS011;7220;49.450;11.052;2023-12-20T03:02:58;0.70;;;0.70;;
14272;SDS011;7220;49.450;11.052;2023-12-20T03:06:59;0.50;;;0.50;;
14272;SDS011;7220;49.450;11.052;2023-12-20T03:11:00;0.50;;;0.50;;
14272;SDS011;7220;49.450;11.052;2023-12-20T03:15:00;0.50;;;0.50;;
14272;SDS011;7220;49.450;11.052;2023-12-20T03:19:00;0.40;;;0.40;;
14272;SDS011;7220;49.450;11.052;2023-12-20T03:23:01;0.45;;;0.45;;
14272;SDS011;7220;49.450;11.052;2023-12-20T03:27:01;0.50;;;0.50;;
14272;SDS011;7220;49.450;11.052;2023-12-20T03:31:01;0.60;;;0.60;;
14272;SDS011;7220;49.450;11.052;2023-12-20T03:35:02;0.65;;;0.60;;
14272;SDS011;7220;49.450;11.052;2023-12-20T03:39:03;0.55;;;0.55;;
14272;SDS011;7220;49.450;11.052;2023-12-20T03:43:03;0.77;;;0.77;;
14272;SDS011;7220;49.450;11.052;2023-12-20T03:47:03;0.63;;;0.63;;
14272;SDS011;7220;49.450;11.052;2023-12-20T03:51:04;1.02;;;0.93;;
14272;SDS011;7220;49.450;11.052;2023-12-20T03:55:04;1.08;;;0.73;;
14272;SDS011;7220;49.450;11.052;2023-12-20T03:59:05;0.60;;;0.60;;
14272;SDS011;7220;49.450;11.052;2023-12-20T04:03:06;0.65;;;0.65;;
14272;SDS011;7220;49.450;11.052;2023-12-20T04:07:07;0.60;;;0.60;;
14272;SDS011;7220;49.450;11.052;2023-12-20T04:11:07;0.60;;;0.60;;
14272;SDS011;7220;49.450;11.052;2023-12-20T04:15:08;0.70;;;0.70;;
14272;SDS011;7220;49.450;11.052;2023-12-20T04:19:10;0.65;;;0.65;;
14272;SDS011;7220;49.450;11.052;2023-12-20T04:23:10;0.60;;;0.60;;
14272;SDS011;7220;49.450;11.052;2023-12-20T04:27:10;0.60;;;0.60;;
14272;SDS011;7220;49.450;11.052;2023-12-20T04:31:11;0.45;;;0.45;;
14272;SDS011;7220;49.450;11.052;2023-12-20T04:35:12;0.40;;;0.40;;
14272;SDS011;7220;49.450;11.052;2023-12-20T04:39:12;1.85;;;0.77;;
14272;SDS011;7220;49.450;11.052;2023-12-20T04:43:13;0.65;;;0.65;;
14272;SDS011;7220;49.450;11.052;2023-12-20T04:47:13;1.02;;;0.90;;
14272;SDS011;7220;49.450;11.052;2023-12-20T04:51:14;0.43;;;0.43;;
14272;SDS011;7220;49.450;11.052;2023-12-20T04:55:14;0.80;;;0.80;;
14272;SDS011;7220;49.450;11.052;2023-12-20T04:59:14;0.70;;;0.70;;
14272;SDS011;7220;49.450;11.052;2023-12-20T05:03:15;0.60;;;0.60;;
14272;SDS011;7220;49.450;11.052;2023-12-20T05:07:15;0.57;;;0.57;;
14272;SDS011;7220;49.450;11.052;2023-12-20T05:11:15;0.73;;;0.73;;
14272;SDS011;7220;49.450;11.052;2023-12-20T05:15:16;0.75;;;0.75;;
14272;SDS011;7220;49.450;11.052;2023-12-20T05:19:17;0.75;;;0.75;;
14272;SDS011;7220;49.450;11.052;2023-12-20T05:23:17;0.50;;;0.50;;
14272;SDS011;7220;49.450;11.052;2023-12-20T05:27:17;0.80;;;0.80;;
14272;SDS011;7220;49.450;11.052;2023-12-20T05:31:18;0.70;;;0.70;;
14272;SDS011;7220;49.450;11.052;2023-12-20T05:35:18;1.00;;;1.00;;
14272;SDS011;7220;49.450;11.052;2023-12-20T05:39:19;0.82;;;0.82;;
14272;SDS011;7220;49.450;11.052;2023-12-20T05:43:19;0.80;;;0.80;;
14272;SDS011;7220;49.450;11.052;2023-12-20T05:47:20;0.85;;;0.85;;
14272;SDS011;7220;49.450;11.052;2023-12-20T05:51:20;0.60;;;0.60;;
14272;SDS011;7220;49.450;11.052;2023-12-20T05:55:20;1.10;;;1.10;;
14272;SDS011;7220;49.450;11.052;2023-12-20T05:59:21;0.65;;;0.65;;
14272;SDS011;7220;49.450;11.052;2023-12-20T06:03:21;0.50;;;0.50;;
14272;SDS011;7220;49.450;11.052;2023-12-20T06:07:21;0.75;;;0.75;;
14272;SDS011;7220;49.450;11.052;2023-12-20T06:11:22;0.77;;;0.77;;
14272;SDS011;7220;49.450;11.052;2023-12-20T06:15:22;0.80;;;0.80;;
14272;SDS011;7220;49.450;11.052;2023-12-20T06:19:23;0.75;;;0.75;;
14272;SDS011;7220;49.450;11.052;2023-12-20T06:23:23;0.73;;;0.73;;
14272;SDS011;7220;49.450;11.052;2023-12-20T06:27:24;0.80;;;0.70;;
14272;SDS011;7220;49.450;11.052;2023-12-20T06:31:24;0.77;;;0.75;;
14272;SDS011;7220;49.450;11.052;2023-12-20T06:35:24;0.60;;;0.60;;
14272;SDS011;7220;49.450;11.052;2023-12-20T06:39:25;1.10;;;1.02;;
14272;SDS011;7220;49.450;11.052;2023-12-20T06:43:25;0.98;;;0.98;;
14272;SDS011;7220;49.450;11.052;2023-12-20T06:47:26;0.88;;;0.88;;
14272;SDS011;7220;49.450;11.052;2023-12-20T06:51:26;0.98;;;0.98;;
14272;SDS011;7220;49.450;11.052;2023-12-20T06:55:26;1.10;;;1.10;;
14272;SDS011;7220;49.450;11.052;2023-12-20T06:59:27;0.80;;;0.80;;
14272;SDS011;7220;49.450;11.052;2023-12-20T07:03:27;1.25;;;1.25;;
14272;SDS011;7220;49.450;11.052;2023-12-20T07:07:27;0.85;;;0.80;;
14272;SDS011;7220;49.450;11.052;2023-12-20T07:11:28;1.05;;;0.95;;
14272;SDS011;7220;49.450;11.052;2023-12-20T07:15:28;2.13;;;1.00;;
14272;SDS011;7220;49.450;11.052;2023-12-20T07:19:29;1.27;;;1.20;;
14272;SDS011;7220;49.450;11.052;2023-12-20T07:23:30;1.30;;;1.30;;
14272;SDS011;7220;49.450;11.052;2023-12-20T07:27:30;1.60;;;1.50;;
14272;SDS011;7220;49.450;11.052;2023-12-20T07:31:30;1.73;;;1.60;;
14272;SDS011;7220;49.450;11.052;2023-12-20T07:35:31;1.27;;;1.20;;
14272;SDS011;7220;49.450;11.052;2023-12-20T07:39:31;1.67;;;1.52;;
14272;SDS011;7220;49.450;11.052;2023-12-20T07:43:31;1.38;;;1.27;;
14272;SDS011;7220;49.450;11.052;2023-12-20T07:47:32;1.70;;;1.25;;
14272;SDS011;7220;49.450;11.052;2023-12-20T07:51:32;1.27;;;1.23;;
14272;SDS011;7220;49.450;11.052;2023-12-20T07:55:33;1.17;;;1.17;;
14272;SDS011;7220;49.450;11.052;2023-12-20T07:59:34;1.45;;;1.35;;
14272;SDS011;7220;49.450;11.052;2023-12-20T08:03:34;1.17;;;1.13;;
14272;SDS011;7220;49.450;11.052;2023-12-20T08:07:35;1.35;;;1.25;;
14272;SDS011;7220;49.450;11.052;2023-12-20T08:11:35;0.98;;;0.98;;
14272;SDS011;7220;49.450;11.052;2023-12-20T08:15:35;1.92;;;1.52;;
14272;SDS011;7220;49.450;11.052;2023-12-20T08:19:37;1.00;;;1.00;;
14272;SDS011;7220;49.450;11.052;2023-12-20T08:23:37;1.58;;;1.48;;
14272;SDS011;7220;49.450;11.052;2023-12-20T08:27:39;0.93;;;0.93;;
14272;SDS011;7220;49.450;11.052;2023-12-20T08:31:41;1.15;;;1.10;;
14272;SDS011;7220;49.450;11.052;2023-12-20T08:35:41;1.27;;;1.15;;
14272;SDS011;7220;49.450;11.052;2023-12-20T08:39:41;1.27;;;1.25;;
14272;SDS011;7220;49.450;11.052;2023-12-20T08:43:44;1.02;;;0.95;;
14272;SDS011;7220;49.450;11.052;2023-12-20T08:47:44;1.55;;;1.45;;
14272;SDS011;7220;49.450;11.052;2023-12-20T08:51:45;1.23;;;1.00;;
14272;SDS011;7220;49.450;11.052;2023-12-20T08:55:45;1.73;;;1.48;;
14272;SDS011;7220;49.450;11.052;2023-12-20T08:59:46;1.67;;;1.58;;
14272;SDS011;7220;49.450;11.052;2023-12-20T09:03:50;1.40;;;0.95;;
14272;SDS011;7220;49.450;11.052;2023-12-20T09:07:50;1.55;;;1.40;;
14272;SDS011;7220;49.450;11.052;2023-12-20T09:11:50;1.45;;;1.35;;
14272;SDS011;7220;49.450;11.052;2023-12-20T09:15:51;1.40;;;1.30;;
14272;SDS011;7220;49.450;11.052;2023-12-20T09:19:51;1.23;;;1.00;;
14272;SDS011;7220;49.450;11.052;2023-12-20T09:23:53;1.55;;;1.27;;
14272;SDS011;7220;49.450;11.052;2023-12-20T09:27:54;1.13;;;1.13;;
14272;SDS011;7220;49.450;11.052;2023-12-20T09:31:54;1.55;;;1.20;;
14272;SDS011;7220;49.450;11.052;2023-12-20T09:35:55;1.30;;;1.20;;
14272;SDS011;7220;49.450;11.052;2023-12-20T09:39:55;1.85;;;1.50;;
14272;SDS011;7220;49.450;11.052;2023-12-20T09:43:56;1.30;;;1.20;;
14272;SDS011;7220;49.450;11.052;2023-12-20T09:48:00;1.10;;;1.10;;
14272;SDS011;7220;49.450;11.052;2023-12-20T09:52:02;0.80;;;0.80;;
14272;SDS011;7220;49.450;11.052;2023-12-20T09:56:05;1.10;;;1.00;;
14272;SDS011;7220;49.450;11.052;2023-12-20T10:00:06;1.95;;;1.13;;
14272;SDS011;7220;49.450;11.052;2023-12-20T10:04:07;1.13;;;1.08;;
14272;SDS011;7220;49.450;11.052;2023-12-20T10:08:10;0.80;;;0.80;;
14272;SDS011;7220;49.450;11.052;2023-12-20T10:12:11;1.30;;;0.88;;
14272;SDS011;7220;49.450;11.052;2023-12-20T10:16:11;1.02;;;0.82;;
14272;SDS011;7220;49.450;11.052;2023-12-20T10:20:11;1.17;;;0.80;;
14272;SDS011;7220;49.450;11.052;2023-12-20T10:24:16;0.90;;;0.90;;
14272;SDS011;7220;49.450;11.052;2023-12-20T10:28:17;0.95;;;0.95;;
14272;SDS011;7220;49.450;11.052;2023-12-20T10:32:23;1.23;;;0.80;;
14272;SDS011;7220;49.450;11.052;2023-12-20T10:36:25;1.00;;;1.00;;
14272;SDS011;7220;49.450;11.052;2023-12-20T10:40:29;3.47;;;1.05;;
14272;SDS011;7220;49.450;11.052;2023-12-20T10:44:30;1.20;;;1.10;;
14272;SDS011;7220;49.450;11.052;2023-12-20T10:48:30;1.30;;;1.20;;
14272;SDS011;7220;49.450;11.052;2023-12-20T10:52:32;1.15;;;0.82;;
14272;SDS011;7220;49.450;11.052;2023-12-20T10:56:35;1.00;;;1.00;;
14272;SDS011;7220;49.450;11.052;2023-12-20T11:00:39;0.88;;;0.88;;
14272;SDS011;7220;49.450;11.052;2023-12-20T11:08:48;1.15;;;1.00;;
14272;SDS011;7220;49.450;11.052;2023-12-20T11:13:08;0.70;;;0.70;;
14272;SDS011;7220;49.450;11.052;2023-12-20T11:17:16;1.30;;;1.20;;
14272;SDS011;7220;49.450;11.052;2023-12-20T11:21:18;0.80;;;0.80;;
14272;SDS011;7220;49.450;11.052;2023-12-20T11:25:19;1.60;;;1.00;;
14272;SDS011;7220;49.450;11.052;2023-12-20T11:29:30;0.68;;;0.68;;
14272;SDS011;7220;49.450;11.052;2023-12-20T11:33:38;1.25;;;0.70;;
14272;SDS011;7220;49.450;11.052;2023-12-20T11:37:39;0.70;;;0.70;;
14272;SDS011;7220;49.450;11.052;2023-12-20T11:41:44;0.70;;;0.68;;
14272;SDS011;7220;49.450;11.052;2023-12-20T11:45:49;0.90;;;0.90;;
14272;SDS011;7220;49.450;11.052;2023-12-20T11:49:51;1.30;;;1.15;;
14272;SDS011;7220;49.450;11.052;2023-12-20T11:53:51;1.13;;;0.98;;
14272;SDS011;7220;49.450;11.052;2023-12-20T11:57:53;1.08;;;1.00;;
14272;SDS011;7220;49.450;11.052;2023-12-20T12:01:54;3.97;;;1.42;;
14272;SDS011;7220;49.450;11.052;2023-12-20T12:06:00;0.98;;;0.98;;
14272;SDS011;7220;49.450;11.052;2023-12-20T12:10:02;1.27;;;0.98;;
14272;SDS011;7220;49.450;11.052;2023-12-20T12:14:06;1.30;;;1.20;;
14272;SDS011;7220;49.450;11.052;2023-12-20T12:18:07;0.90;;;0.90;;
14272;SDS011;7220;49.450;11.052;2023-12-20T12:22:08;1.88;;;1.13;;
14272;SDS011;7220;49.450;11.052;2023-12-20T12:26:14;0.77;;;0.77;;
14272;SDS011;7220;49.450;11.052;2023-12-20T12:30:15;0.85;;;0.85;;
14272;SDS011;7220;49.450;11.052;2023-12-20T12:34:18;0.85;;;0.85;;
14272;SDS011;7220;49.450;11.052;2023-12-20T12:38:22;1.40;;;1.08;;
14272;SDS011;7220;49.450;11.052;2023-12-20T12:42:23;0.90;;;0.90;;
14272;SDS011;7220;49.450;11.052;2023-12-20T12:46:28;0.88;;;0.88;;
14272;SDS011;7220;49.450;11.052;2023-12-20T12:50:30;1.60;;;1.50;;
14272;SDS011;7220;49.450;11.052;2023-12-20T12:54:31;2.15;;;0.88;;
14272;SDS011;7220;49.450;11.052;2023-12-20T12:58:31;0.88;;;0.88;;
14272;SDS011;7220;49.450;11.052;2023-12-20T13:02:32;0.95;;;0.95;;
14272;SDS011;7220;49.450;11.052;2023-12-20T13:06:32;1.77;;;1.20;;
14272;SDS011;7220;49.450;11.052;2023-12-20T13:10:33;1.25;;;1.15;;
14272;SDS011;7220;49.450;11.052;2023-12-20T13:14:33;0.93;;;0.93;;
14272;SDS011;7220;49.450;11.052;2023-12-20T13:18:34;1.63;;;1.08;;
14272;SDS011;7220;49.450;11.052;2023-12-20T13:22:35;0.85;;;0.85;;
14272;SDS011;7220;49.450;11.052;2023-12-20T13:26:35;0.98;;;0.98;;
14272;SDS011;7220;49.450;11.052;2023-12-20T13:30:36;0.93;;;0.82;;
14272;SDS011;7220;49.450;11.052;2023-12-20T13:34:36;0.90;;;0.90;;
14272;SDS011;7220;49.450;11.052;2023-12-20T13:38:37;1.35;;;0.95;;
14272;SDS011;7220;49.450;11.052;2023-12-20T13:42:37;2.42;;;1.00;;
14272;SDS011;7220;49.450;11.052;2023-12-20T13:46:40;0.90;;;0.70;;
14272;SDS011;7220;49.450;11.052;2023-12-20T13:50:41;1.95;;;1.00;;
14272;SDS011;7220;49.450;11.052;2023-12-20T13:54:42;0.75;;;0.75;;
14272;SDS011;7220;49.450;11.052;2023-12-20T13:58:42;1.20;;;1.10;;
14272;SDS011;7220;49.450;11.052;2023-12-20T14:02:42;0.93;;;0.93;;
14272;SDS011;7220;49.450;11.052;2023-12-20T14:06:43;1.60;;;1.00;;
14272;SDS011;7220;49.450;11.052;2023-12-20T14:10:43;1.08;;;1.08;;
14272;SDS011;7220;49.450;11.052;2023-12-20T14:14:44;0.90;;;0.90;;
14272;SDS011;7220;49.450;11.052;2023-12-20T14:18:44;1.08;;;1.00;;
14272;SDS011;7220;49.450;11.052;2023-12-20T14:22:45;0.85;;;0.85;;
14272;SDS011;7220;49.450;11.052;2023-12-20T14:26:46;0.70;;;0.70;;
14272;SDS011;7220;49.450;11.052;2023-12-20T14:30:46;2.15;;;1.13;;
14272;SDS011;7220;49.450;11.052;2023-12-20T14:34:47;0.75;;;0.75;;
14272;SDS011;7220;49.450;11.052;2023-12-20T14:38:47;1.35;;;1.13;;
14272;SDS011;7220;49.450;11.052;2023-12-20T14:42:49;0.95;;;0.88;;
14272;SDS011;7220;49.450;11.052;2023-12-20T14:46:50;0.90;;;0.90;;
14272;SDS011;7220;49.450;11.052;2023-12-20T14:50:51;0.80;;;0.80;;
14272;SDS011;7220;49.450;11.052;2023-12-20T14:54:52;1.25;;;1.15;;
14272;SDS011;7220;49.450;11.052;2023-12-20T14:58:52;0.85;;;0.85;;
14272;SDS011;7220;49.450;11.052;2023-12-20T15:02:53;0.95;;;0.93;;
14272;SDS011;7220;49.450;11.052;2023-12-20T15:06:56;1.70;;;1.20;;
14272;SDS011;7220;49.450;11.052;2023-12-20T15:10:56;0.90;;;0.90;;
14272;SDS011;7220;49.450;11.052;2023-12-20T15:14:57;1.73;;;1.30;;
14272;SDS011;7220;49.450;11.052;2023-12-20T15:18:57;1.60;;;1.50;;
14272;SDS011;7220;49.450;11.052;2023-12-20T15:22:58;0.80;;;0.80;;
14272;SDS011;7220;49.450;11.052;2023-12-20T15:27:05;1.15;;;1.15;;
14272;SDS011;7220;49.450;11.052;2023-12-20T15:31:05;1.30;;;1.20;;
14272;SDS011;7220;49.450;11.052;2023-12-20T15:35:06;1.27;;;1.17;;
14272;SDS011;7220;49.450;11.052;2023-12-20T15:39:07;0.90;;;0.90;;
14272;SDS011;7220;49.450;11.052;2023-12-20T15:43:10;1.35;;;1.20;;
14272;SDS011;7220;49.450;11.052;2023-12-20T15:47:10;1.30;;;1.20;;
14272;SDS011;7220;49.450;11.052;2023-12-20T15:51:11;1.23;;;1.15;;
14272;SDS011;7220;49.450;11.052;2023-12-20T15:55:11;1.42;;;1.33;;
14272;SDS011;7220;49.450;11.052;2023-12-20T15:59:11;1.98;;;1.38;;
14272;SDS011;7220;49.450;11.052;2023-12-20T16:03:12;1.58;;;1.52;;
14272;SDS011;7220;49.450;11.052;2023-12-20T16:07:12;1.40;;;1.30;;
14272;SDS011;7220;49.450;11.052;2023-12-20T16:11:13;3.30;;;1.58;;
14272;SDS011;7220;49.450;11.052;2023-12-20T16:15:13;1.50;;;1.40;;
14272;SDS011;7220;49.450;11.052;2023-12-20T16:19:14;1.50;;;1.40;;
14272;SDS011;7220;49.450;11.052;2023-12-20T16:23:14;2.10;;;1.48;;
14272;SDS011;7220;49.450;11.052;2023-12-20T16:27:14;1.35;;;1.25;;
14272;SDS011;7220;49.450;11.052;2023-12-20T16:31:15;2.20;;;1.20;;
14272;SDS011;7220;49.450;11.052;2023-12-20T16:35:17;1.30;;;1.25;;
14272;SDS011;7220;49.450;11.052;2023-12-20T16:39:18;1.15;;;1.15;;
14272;SDS011;7220;49.450;11.052;2023-12-20T16:43:20;1.85;;;1.38;;
14272;SDS011;7220;49.450;11.052;2023-12-20T16:47:22;1.77;;;1.67;;
14272;SDS011;7220;49.450;11.052;2023-12-20T16:51:23;1.60;;;1.50;;
14272;SDS011;7220;49.450;11.052;2023-12-20T16:55:23;3.10;;;1.58;;
14272;SDS011;7220;49.450;11.052;2023-12-20T16:59:23;1.23;;;1.05;;
14272;SDS011;7220;49.450;11.052;2023-12-20T17:03:24;1.50;;;1.40;;
14272;SDS011;7220;49.450;11.052;2023-12-20T17:07:26;1.65;;;1.55;;
14272;SDS011;7220;49.450;11.052;2023-12-20T17:11:27;1.42;;;1.33;;
14272;SDS011;7220;49.450;11.052;2023-12-20T17:15:28;1.40;;;1.30;;
14272;SDS011;7220;49.450;11.052;2023-12-20T17:19:28;1.35;;;1.25;;
14272;SDS011;7220;49.450;11.052;2023-12-20T17:23:30;1.27;;;1.23;;
14272;SDS011;7220;49.450;11.052;2023-12-20T17:27:30;1.95;;;1.45;;
14272;SDS011;7220;49.450;11.052;2023-12-20T17:31:30;4.28;;;2.80;;
14272;SDS011;7220;49.450;11.052;2023-12-20T17:35:31;2.72;;;1.20;;
14272;SDS011;7220;49.450;11.052;2023-12-20T17:39:31;7.72;;;1.73;;
14272;SDS011;7220;49.450;11.052;2023-12-20T17:43:32;1.67;;;1.50;;
14272;SDS011;7220;49.450;11.052;2023-12-20T17:47:32;1.42;;;1.33;;
14272;SDS011;7220;49.450;11.052;2023-12-20T17:51:33;0.90;;;0.88;;
14272;SDS011;7220;49.450;11.052;2023-12-20T17:55:33;1.10;;;1.00;;
14272;SDS011;7220;49.450;11.052;2023-12-20T17:59:33;1.73;;;1.30;;
14272;SDS011;7220;49.450;11.052;2023-12-20T18:03:34;1.25;;;0.77;;
14272;SDS011;7220;49.450;11.052;2023-12-20T18:07:34;1.20;;;1.10;;
14272;SDS011;7220;49.450;11.052;2023-12-20T18:11:35;1.40;;;1.30;;
14272;SDS011;7220;49.450;11.052;2023-12-20T18:15:35;1.10;;;0.98;;
14272;SDS011;7220;49.450;11.052;2023-12-20T18:19:35;1.55;;;1.45;;
14272;SDS011;7220;49.450;11.052;2023-12-20T18:23:35;1.13;;;1.13;;
14272;SDS011;7220;49.450;11.052;2023-12-20T18:27:36;1.80;;;1.33;;
14272;SDS011;7220;49.450;11.052;2023-12-20T18:31:36;1.52;;;0.93;;
14272;SDS011;7220;49.450;11.052;2023-12-20T18:35:37;1.30;;;1.20;;
14272;SDS011;7220;49.450;11.052;2023-12-20T18:39:40;2.05;;;0.98;;
14272;SDS011;7220;49.450;11.052;2023-12-20T18:43:40;5.53;;;1.27;;
14272;SDS011;7220;49.450;11.052;2023-12-20T18:47:41;0.93;;;0.93;;
14272;SDS011;7220;49.450;11.052;2023-12-20T18:51:41;0.90;;;0.90;;
14272;SDS011;7220;49.450;11.052;2023-12-20T18:55:42;0.90;;;0.90;;
14272;SDS011;7220;49.450;11.052;2023-12-20T18:59:42;3.33;;;1.17;;
14272;SDS011;7220;49.450;11.052;2023-12-20T19:03:43;0.95;;;0.95;;
14272;SDS011;7220;49.450;11.052;2023-12-20T19:07:43;0.63;;;0.63;;
14272;SDS011;7220;49.450;11.052;2023-12-20T19:11:43;1.42;;;1.08;;
14272;SDS011;7220;49.450;11.052;2023-12-20T19:15:44;2.70;;;1.00;;
14272;SDS011;7220;49.450;11.052;2023-12-20T19:19:44;1.05;;;1.02;;
14272;SDS011;7220;49.450;11.052;2023-12-20T19:23:44;1.20;;;1.15;;
14272;SDS011;7220;49.450;11.052;2023-12-20T19:27:45;0.80;;;0.80;;
14272;SDS011;7220;49.450;11.052;2023-12-20T19:31:45;1.38;;;1.00;;
14272;SDS011;7220;49.450;11.052;2023-12-20T19:35:47;1.35;;;1.25;;
14272;SDS011;7220;49.450;11.052;2023-12-20T19:39:49;1.30;;;1.20;;
14272;SDS011;7220;49.450;11.052;2023-12-20T19:43:49;0.98;;;0.90;;
14272;SDS011;7220;49.450;11.052;2023-12-20T19:47:50;1.15;;;1.08;;
14272;SDS011;7220;49.450;11.052;2023-12-20T19:51:51;0.85;;;0.85;;
14272;SDS011;7220;49.450;11.052;2023-12-20T19:55:51;1.08;;;1.08;;
14272;SDS011;7220;49.450;11.052;2023-12-20T19:59:52;2.72;;;1.00;;
14272;SDS011;7220;49.450;11.052;2023-12-20T20:03:52;1.25;;;1.15;;
14272;SDS011;7220;49.450;11.052;2023-12-20T20:07:53;0.82;;;0.82;;
14272;SDS011;7220;49.450;11.052;2023-12-20T20:11:54;1.38;;;1.27;;
14272;SDS011;7220;49.450;11.052;2023-12-20T20:15:54;1.67;;;1.58;;
14272;SDS011;7220;49.450;11.052;2023-12-20T20:19:55;1.67;;;1.15;;
14272;SDS011;7220;49.450;11.052;2023-12-20T20:23:55;1.38;;;1.27;;
14272;SDS011;7220;49.450;11.052;2023-12-20T20:27:56;1.13;;;1.02;;
14272;SDS011;7220;49.450;11.052;2023-12-20T20:31:56;1.25;;;1.15;;
14272;SDS011;7220;49.450;11.052;2023-12-20T20:35:56;1.30;;;1.10;;
14272;SDS011;7220;49.450;11.052;2023-12-20T20:39:57;1.00;;;1.00;;
14272;SDS011;7220;49.450;11.052;2023-12-20T20:43:59;1.25;;;1.17;;
14272;SDS011;7220;49.450;11.052;2023-12-20T20:48:00;1.30;;;1.20;;
14272;SDS011;7220;49.450;11.052;2023-12-20T20:52:00;1.27;;;1.20;;
14272;SDS011;7220;49.450;11.052;2023-12-20T20:56:01;2.70;;;1.00;;
14272;SDS011;7220;49.450;11.052;2023-12-20T21:00:01;1.00;;;1.00;;
14272;SDS011;7220;49.450;11.052;2023-12-20T21:04:02;0.85;;;0.85;;
14272;SDS011;7220;49.450;11.052;2023-12-20T21:08:03;2.30;;;1.40;;
14272;SDS011;7220;49.450;11.052;2023-12-20T21:12:03;1.20;;;1.10;;
14272;SDS011;7220;49.450;11.052;2023-12-20T21:16:04;1.50;;;1.35;;
14272;SDS011;7220;49.450;11.052;2023-12-20T21:20:07;1.17;;;0.82;;
14272;SDS011;7220;49.450;11.052;2023-12-20T21:24:08;0.90;;;0.90;;
14272;SDS011;7220;49.450;11.052;2023-12-20T21:28:08;1.83;;;0.90;;
14272;SDS011;7220;49.450;11.052;2023-12-20T21:32:09;0.63;;;0.63;;
14272;SDS011;7220;49.450;11.052;2023-12-20T21:36:09;1.30;;;1.20;;
14272;SDS011;7220;49.450;11.052;2023-12-20T21:40:16;0.88;;;0.88;;
14272;SDS011;7220;49.450;11.052;2023-12-20T21:44:17;2.33;;;1.13;;
14272;SDS011;7220;49.450;11.052;2023-12-20T21:48:18;1.48;;;1.10;;
14272;SDS011;7220;49.450;11.052;2023-12-20T21:52:18;0.90;;;0.90;;
14272;SDS011;7220;49.450;11.052;2023-12-20T21:56:19;2.00;;;0.80;;
14272;SDS011;7220;49.450;11.052;2023-12-20T22:00:19;2.28;;;1.10;;
14272;SDS011;7220;49.450;11.052;2023-12-20T22:04:20;0.85;;;0.85;;
14272;SDS011;7220;49.450;11.052;2023-12-20T22:08:20;0.65;;;0.65;;
14272;SDS011;7220;49.450;11.052;2023-12-20T22:12:21;0.98;;;0.98;;
14272;SDS011;7220;49.450;11.052;2023-12-20T22:16:22;0.68;;;0.68;;
14272;SDS011;7220;49.450;11.052;2023-12-20T22:20:22;0.88;;;0.80;;
14272;SDS011;7220;49.450;11.052;2023-12-20T22:24:22;0.95;;;0.95;;
14272;SDS011;7220;49.450;11.052;2023-12-20T22:28:23;0.90;;;0.90;;
14272;SDS011;7220;49.450;11.052;2023-12-20T22:32:23;0.80;;;0.80;;
14272;SDS011;7220;49.450;11.052;2023-12-20T22:36:25;0.90;;;0.90;;
14272;SDS011;7220;49.450;11.052;2023-12-20T22:40:25;0.90;;;0.90;;
14272;SDS011;7220;49.450;11.052;2023-12-20T22:44:26;0.80;;;0.80;;
14272;SDS011;7220;49.450;11.052;2023-12-20T22:48:26;1.05;;;1.05;;
14272;SDS011;7220;49.450;11.052;2023-12-20T22:52:27;1.05;;;1.02;;
14272;SDS011;7220;49.450;11.052;2023-12-20T22:56:27;0.68;;;0.68;;
14272;SDS011;7220;49.450;11.052;2023-12-20T23:00:28;1.08;;;1.00;;
14272;SDS011;7220;49.450;11.052;2023-12-20T23:04:28;0.80;;;0.80;;
14272;SDS011;7220;49.450;11.052;2023-12-20T23:08:29;1.05;;;1.05;;
14272;SDS011;7220;49.450;11.052;2023-12-20T23:12:29;1.38;;;1.13;;
14272;SDS011;7220;49.450;11.052;2023-12-20T23:16:31;0.90;;;0.90;;
14272;SDS011;7220;49.450;11.052;2023-12-20T23:20:32;2.33;;;1.30;;
14272;SDS011;7220;49.450;11.052;2023-12-20T23:24:34;2.20;;;1.00;;
14272;SDS011;7220;49.450;11.052;2023-12-20T23:28:34;0.90;;;0.90;;
14272;SDS011;7220;49.450;11.052;2023-12-20T23:32:35;1.05;;;1.00;;
14272;SDS011;7220;49.450;11.052;2023-12-20T23:36:35;1.30;;;0.90;;
14272;SDS011;7220;49.450;11.052;2023-12-20T23:40:35;0.88;;;0.88;;
14272;SDS011;7220;49.450;11.052;2023-12-20T23:44:36;0.77;;;0.77;;
14272;SDS011;7220;49.450;11.052;2023-12-20T23:48:36;0.65;;;0.65;;
14272;SDS011;7220;49.450;11.052;2023-12-20T23:52:37;0.70;;;0.70;;
14272;SDS011;7220;49.450;11.052;2023-12-20T23:56:37;0.65;;;0.65;;
